createdAt,value
2017-02-02T00:00:46.289Z,14.29
2017-02-02T00:01:46.226Z,14.39
2017-02-02T00:02:46.168Z,14.29
2017-02-02T00:03:46.101Z,14.48
2017-02-02T00:04:46.042Z,14.29
2017-02-02T00:05:45.977Z,14.29
2017-02-02T00:06:45.914Z,14.29
2017-02-02T00:07:45.850Z,14.29
2017-02-02T00:08:45.785Z,14.19
2017-02-02T00:09:45.738Z,14.29
2017-02-02T00:10:45.965Z,14.19
2017-02-02T00:11:45.599Z,14.29
2017-02-02T00:12:45.537Z,14.29
2017-02-02T00:13:45.473Z,14.48
2017-02-02T00:14:45.419Z,14.19
2017-02-02T00:15:45.351Z,14.29
2017-02-02T00:16:45.288Z,14.48
2017-02-02T00:17:45.226Z,14.29
2017-02-02T00:18:45.161Z,14.48
2017-02-02T00:19:45.097Z,14.48
2017-02-02T00:20:59.532Z,14.48
2017-02-02T00:21:44.973Z,14.67
2017-02-02T00:22:44.910Z,14.39
2017-02-02T00:23:45.049Z,14.77
2017-02-02T00:24:44.785Z,14.67
2017-02-02T00:25:44.722Z,14.58
2017-02-02T00:26:44.660Z,14.58
2017-02-02T00:27:44.599Z,14.48
2017-02-02T00:28:44.534Z,14.57
2017-02-02T00:29:44.470Z,14.48
2017-02-02T00:30:44.412Z,14.58
2017-02-02T00:31:44.347Z,14.58
2017-02-02T00:32:44.284Z,14.58
2017-02-02T00:33:44.221Z,14.48
2017-02-02T00:34:44.158Z,14.58
2017-02-02T00:35:44.097Z,14.67
2017-02-02T00:36:44.033Z,14.58
2017-02-02T00:37:43.970Z,14.67
2017-02-02T00:38:43.908Z,14.77
2017-02-02T00:39:43.845Z,14.57
2017-02-02T00:40:43.781Z,14.58
2017-02-02T00:41:43.720Z,14.39
2017-02-02T00:42:43.656Z,14.39
2017-02-02T00:43:43.596Z,14.39
2017-02-02T00:44:43.532Z,14.39
2017-02-02T00:45:43.469Z,14.29
2017-02-02T00:46:43.407Z,14.48
2017-02-02T00:47:43.344Z,14.58
2017-02-02T00:48:43.286Z,14.58
2017-02-02T00:49:43.220Z,14.67
2017-02-02T00:50:43.157Z,14.58
2017-02-02T00:51:43.093Z,14.58
2017-02-02T00:52:43.032Z,14.67
2017-02-02T00:53:42.968Z,14.48
2017-02-02T00:54:42.904Z,14.38
2017-02-02T00:55:42.843Z,14.67
2017-02-02T00:56:42.784Z,14.39
2017-02-02T00:57:42.717Z,14.58
2017-02-02T00:58:42.655Z,14.67
2017-02-02T00:59:42.596Z,14.67
2017-02-02T05:00:58.501Z,15.15
2017-02-02T05:02:02.877Z,15.34
2017-02-02T05:02:58.382Z,15.34
2017-02-02T05:03:58.314Z,15.34
2017-02-02T05:04:57.863Z,15.05
2017-02-02T05:05:57.803Z,14.57
2017-02-02T05:06:58.130Z,14.38
2017-02-02T05:07:57.675Z,14.57
2017-02-02T05:08:57.611Z,14.47
2017-02-02T05:09:57.936Z,14.28
2017-02-02T05:10:57.496Z,14.38
2017-02-02T05:11:57.812Z,14.18
2017-02-02T05:12:57.751Z,14.18
2017-02-02T05:13:57.689Z,14.47
2017-02-02T05:14:57.627Z,14.18
2017-02-02T05:15:57.168Z,14.09
2017-02-02T05:16:57.512Z,14.09
2017-02-02T05:17:57.436Z,13.99
2017-02-02T05:18:57.392Z,13.8
2017-02-02T05:19:56.929Z,13.8
2017-02-02T05:20:56.856Z,13.8
2017-02-02T05:21:56.792Z,13.99
2017-02-02T05:22:57.119Z,13.6
2017-02-02T05:23:57.056Z,13.8
2017-02-02T05:24:56.617Z,13.9
2017-02-02T05:25:56.931Z,13.9
2017-02-02T05:26:56.869Z,13.6
2017-02-02T05:27:56.804Z,13.8
2017-02-02T05:28:56.749Z,13.6
2017-02-02T05:29:56.682Z,13.7
2017-02-02T05:30:56.615Z,13.22
2017-02-02T05:31:56.162Z,13.51
2017-02-02T05:32:56.140Z,13.32
2017-02-02T05:33:56.430Z,13.32
2017-02-02T05:34:56.367Z,13.22
2017-02-02T05:35:56.306Z,13.32
2017-02-02T05:36:56.242Z,13.22
2017-02-02T05:37:56.195Z,13.32
2017-02-02T05:38:55.728Z,13.12
2017-02-02T05:39:56.051Z,12.93
2017-02-02T05:40:55.599Z,13.12
2017-02-02T05:41:55.925Z,13.12
2017-02-02T05:42:55.875Z,13.02
2017-02-02T05:43:55.803Z,13.02
2017-02-02T05:44:55.736Z,13.12
2017-02-02T05:45:55.674Z,13.12
2017-02-02T05:46:55.609Z,13.02
2017-02-02T05:47:55.549Z,13.22
2017-02-02T05:48:55.096Z,13.22
2017-02-02T05:49:55.041Z,13.02
2017-02-02T05:50:55.358Z,12.84
2017-02-02T05:51:54.970Z,12.84
2017-02-02T05:52:55.246Z,13.12
2017-02-02T05:53:55.171Z,12.93
2017-02-02T05:54:55.109Z,12.93
2017-02-02T05:55:55.080Z,12.93
2017-02-02T05:56:54.593Z,13.02
2017-02-02T05:57:54.921Z,12.84
2017-02-02T05:58:54.465Z,12.93
2017-02-02T05:59:54.795Z,12.84
2017-02-02T06:00:54.343Z,12.64
2017-02-02T06:01:54.669Z,12.84
2017-02-02T06:02:54.602Z,12.84
2017-02-02T06:03:54.542Z,12.45
2017-02-02T06:04:54.090Z,12.64
2017-02-02T06:05:54.031Z,12.54
2017-02-02T06:06:53.962Z,12.54
2017-02-02T06:07:54.296Z,12.64
2017-02-02T06:08:53.835Z,12.74
2017-02-02T06:09:54.228Z,12.64
2017-02-02T06:10:53.766Z,12.84
2017-02-02T06:11:54.038Z,12.64
2017-02-02T06:12:53.974Z,12.64
2017-02-02T06:13:53.912Z,12.74
2017-02-02T06:14:53.459Z,12.54
2017-02-02T06:15:53.787Z,12.45
2017-02-02T06:16:53.724Z,12.35
2017-02-02T06:17:53.659Z,12.45
2017-02-02T06:18:53.205Z,12.16
2017-02-02T06:19:53.538Z,12.26
2017-02-02T06:20:53.475Z,12.26
2017-02-02T06:21:53.027Z,11.96
2017-02-02T06:22:53.350Z,11.87
2017-02-02T06:23:52.893Z,12.06
2017-02-02T06:24:53.511Z,12.06
2017-02-02T06:25:53.159Z,11.96
2017-02-02T06:26:53.092Z,12.26
2017-02-02T06:27:53.036Z,11.96
2017-02-02T06:28:52.967Z,12.26
2017-02-02T06:29:52.902Z,11.87
2017-02-02T06:30:52.843Z,11.68
2017-02-02T06:31:52.777Z,11.96
2017-02-02T06:32:52.717Z,11.77
2017-02-02T06:33:52.315Z,11.96
2017-02-02T06:34:52.588Z,11.96
2017-02-02T06:35:52.137Z,11.87
2017-02-02T06:36:52.462Z,11.96
2017-02-02T06:37:52.010Z,11.77
2017-02-02T06:38:52.339Z,12.06
2017-02-02T06:39:51.887Z,11.77
2017-02-02T06:40:52.217Z,11.87
2017-02-02T06:41:52.151Z,11.96
2017-02-02T06:42:52.087Z,12.26
2017-02-02T06:43:52.023Z,12.06
2017-02-02T06:44:51.958Z,11.87
2017-02-02T06:45:51.900Z,12.16
2017-02-02T06:46:51.835Z,11.68
2017-02-02T06:47:51.382Z,11.68
2017-02-02T06:48:51.710Z,11.68
2017-02-02T06:49:51.643Z,11.87
2017-02-02T06:50:51.587Z,11.96
2017-02-02T06:51:51.520Z,11.96
2017-02-02T06:52:51.453Z,11.68
2017-02-02T06:53:51.395Z,11.87
2017-02-02T06:54:51.329Z,11.96
2017-02-02T06:55:51.265Z,11.77
2017-02-02T06:56:50.815Z,11.87
2017-02-02T06:57:51.139Z,11.68
2017-02-02T06:58:51.077Z,11.77
2017-02-02T06:59:51.015Z,12.06
2017-02-02T07:00:50.562Z,11.77
2017-02-02T07:01:50.889Z,11.77
2017-02-02T07:02:50.827Z,11.96
2017-02-02T07:03:50.766Z,11.48
2017-02-02T07:04:50.703Z,11.77
2017-02-02T07:05:50.639Z,11.68
2017-02-02T07:06:50.573Z,11.58
2017-02-02T07:07:50.152Z,11.58
2017-02-02T07:08:50.455Z,11.58
2017-02-02T07:09:49.997Z,11.48
2017-02-02T07:10:49.934Z,11.48
2017-02-02T07:11:49.867Z,11.38
2017-02-02T07:12:50.195Z,11.48
2017-02-02T07:13:50.134Z,11.58
2017-02-02T07:14:50.071Z,11.48
2017-02-02T07:15:50.010Z,11
2017-02-02T07:16:49.941Z,11.1
2017-02-02T07:17:49.492Z,11
2017-02-02T07:18:49.814Z,11.1
2017-02-02T07:19:49.755Z,11.1
2017-02-02T07:20:49.692Z,11
2017-02-02T07:21:49.238Z,11.38
2017-02-02T07:22:49.567Z,11.38
2017-02-02T07:23:49.501Z,11.1
2017-02-02T07:24:49.641Z,11.1
2017-02-02T07:25:49.379Z,11.1
2017-02-02T07:26:48.932Z,11
2017-02-02T07:27:48.866Z,11.29
2017-02-02T07:28:48.796Z,11.38
2017-02-02T07:29:49.127Z,11.19
2017-02-02T07:30:49.061Z,11.29
2017-02-02T07:31:49.005Z,11.1
2017-02-02T07:32:48.935Z,11.29
2017-02-02T07:33:48.874Z,11.29
2017-02-02T07:34:48.807Z,11.29
2017-02-02T07:35:48.748Z,11.38
2017-02-02T07:36:48.343Z,11.1
2017-02-02T07:37:48.230Z,11.29
2017-02-02T07:38:48.557Z,11.48
2017-02-02T07:39:48.494Z,11.19
2017-02-02T07:40:48.439Z,10.81
2017-02-02T07:41:47.986Z,11.19
2017-02-02T07:42:48.308Z,11.29
2017-02-02T07:43:48.254Z,10.81
2017-02-02T07:44:47.833Z,11.29
2017-02-02T07:45:48.116Z,11.19
2017-02-02T07:46:48.055Z,11
2017-02-02T07:47:47.996Z,10.81
2017-02-02T07:48:47.930Z,10.81
2017-02-02T07:49:47.866Z,10.81
2017-02-02T07:50:47.800Z,10.71
2017-02-02T07:51:47.742Z,10.9
2017-02-02T07:52:47.674Z,11
2017-02-02T07:53:47.612Z,11.1
2017-02-02T07:54:47.554Z,10.9
2017-02-02T07:55:47.487Z,11
2017-02-02T07:56:47.037Z,11
2017-02-02T07:57:46.973Z,11.1
2017-02-02T07:58:47.299Z,10.81
2017-02-02T07:59:47.235Z,10.81
2017-02-02T08:00:47.200Z,10.71
2017-02-02T08:01:47.120Z,11
2017-02-02T08:02:47.048Z,10.9
2017-02-02T08:03:46.991Z,10.81
2017-02-02T08:04:46.919Z,10.81
2017-02-02T08:05:46.858Z,10.71
2017-02-02T08:06:46.405Z,11.1
2017-02-02T08:07:46.735Z,10.71
2017-02-02T08:08:46.278Z,10.81
2017-02-02T08:09:46.215Z,10.9
2017-02-02T08:10:46.992Z,11
2017-02-02T08:11:46.090Z,10.81
2017-02-02T08:12:46.026Z,10.9
2017-02-02T08:13:46.354Z,11.1
2017-02-02T08:14:45.903Z,10.81
2017-02-02T08:15:46.224Z,10.9
2017-02-02T08:16:46.164Z,11.1
2017-02-02T08:17:46.103Z,10.71
2017-02-02T08:18:46.042Z,11
2017-02-02T08:19:45.978Z,10.9
2017-02-02T08:20:45.915Z,10.71
2017-02-02T08:21:45.463Z,11.1
2017-02-02T08:22:45.787Z,11.1
2017-02-02T08:23:45.721Z,11.1
2017-02-02T08:24:45.661Z,11.1
2017-02-02T08:25:45.596Z,11
2017-02-02T08:26:45.536Z,11.1
2017-02-02T08:27:45.474Z,11
2017-02-02T08:28:45.408Z,11.1
2017-02-02T08:29:44.956Z,11.1
2017-02-02T08:30:45.142Z,11.1
2017-02-02T08:31:45.222Z,11.29
2017-02-02T08:32:45.160Z,11.19
2017-02-02T08:33:44.713Z,11.19
2017-02-02T08:34:45.032Z,11.29
2017-02-02T08:35:44.968Z,11.19
2017-02-02T08:36:44.905Z,11.38
2017-02-02T08:37:44.840Z,11
2017-02-02T08:38:44.801Z,11.1
2017-02-02T08:39:44.716Z,11.1
2017-02-02T08:40:44.259Z,11.1
2017-02-02T08:41:44.592Z,11.38
2017-02-02T08:42:44.339Z,11.38
2017-02-02T08:43:44.496Z,11.19
2017-02-02T08:44:44.400Z,11.38
2017-02-02T08:45:43.947Z,11.19
2017-02-02T08:46:43.887Z,11.1
2017-02-02T08:47:44.211Z,11.19
2017-02-02T08:48:43.774Z,11.29
2017-02-02T08:49:44.093Z,11.1
2017-02-02T08:50:43.630Z,11.19
2017-02-02T08:51:43.959Z,11.19
2017-02-02T08:52:43.507Z,11.29
2017-02-02T08:53:43.838Z,11.19
2017-02-02T08:54:43.770Z,11.1
2017-02-02T08:55:43.715Z,11.1
2017-02-02T08:56:43.259Z,11
2017-02-02T08:57:43.193Z,11.1
2017-02-02T08:58:43.129Z,11
2017-02-02T08:59:43.065Z,11.68
2017-02-02T09:00:43.392Z,11.68
2017-02-02T09:01:43.327Z,11.58
2017-02-02T09:02:43.269Z,12.35
2017-02-02T09:03:43.203Z,12.06
2017-02-02T09:04:43.145Z,11.77
2017-02-02T09:05:42.688Z,12.74
2017-02-02T09:06:43.018Z,12.54
2017-02-02T09:07:42.564Z,12.84
2017-02-02T09:08:42.890Z,12.84
2017-02-02T09:09:42.442Z,13.13
2017-02-02T09:10:42.765Z,13.22
2017-02-02T09:11:42.701Z,13.23
2017-02-02T09:12:42.292Z,14.09
2017-02-02T09:13:42.573Z,14.77
2017-02-02T09:14:42.128Z,14.39
2017-02-02T09:15:42.454Z,14.77
2017-02-02T09:16:42.407Z,15.06
2017-02-02T09:17:42.321Z,15.16
2017-02-02T09:18:41.867Z,14.97
2017-02-02T09:19:42.197Z,14.87
2017-02-02T09:20:42.132Z,15.64
2017-02-02T09:21:41.679Z,15.45
2017-02-02T09:22:41.615Z,16.22
2017-02-02T09:23:41.944Z,16.22
2017-02-02T09:24:42.091Z,16.99
2017-02-02T09:25:41.778Z,17.19
2017-02-02T09:26:41.761Z,17.19
2017-02-02T09:27:41.694Z,16.61
2017-02-02T09:28:41.632Z,17.38
2017-02-02T09:29:41.179Z,18.05
2017-02-02T09:30:41.666Z,17.19
2017-02-02T09:31:41.453Z,17.96
2017-02-02T09:32:41.416Z,18.34
2017-02-02T09:33:40.929Z,18.54
2017-02-02T09:34:41.260Z,18.44
2017-02-02T09:35:41.501Z,19.02
2017-02-02T09:36:41.129Z,19.12
2017-02-02T09:37:40.691Z,18.73
2017-02-02T09:38:40.615Z,19.02
2017-02-02T09:39:40.945Z,19.22
2017-02-02T09:40:41.193Z,19.02
2017-02-02T09:41:40.820Z,19.42
2017-02-02T09:42:40.755Z,19.61
2017-02-02T09:43:40.692Z,19.32
2017-02-02T09:44:40.241Z,19.42
2017-02-02T09:45:40.719Z,19.61
2017-02-02T09:46:40.505Z,19.7
2017-02-02T09:47:40.442Z,19.7
2017-02-02T09:48:40.382Z,20.28
2017-02-02T09:49:40.320Z,20.28
2017-02-02T09:50:40.503Z,20.19
2017-02-02T09:51:39.802Z,20.67
2017-02-02T09:52:39.740Z,20.67
2017-02-02T09:53:40.070Z,20.48
2017-02-02T09:54:40.007Z,20.67
2017-02-02T09:55:39.945Z,20.67
2017-02-02T09:56:39.883Z,20.86
2017-02-02T09:57:39.819Z,20.96
2017-02-02T09:58:39.367Z,21.06
2017-02-02T09:59:39.694Z,21.64
2017-02-02T10:00:39.241Z,21.15
2017-02-02T10:01:39.568Z,21.25
2017-02-02T10:02:48.321Z,21.35
2017-02-02T10:03:39.448Z,21.06
2017-02-02T10:04:39.380Z,21.15
2017-02-02T10:05:54.068Z,21.54
2017-02-02T10:06:39.263Z,21.65
2017-02-02T10:07:39.196Z,21.55
2017-02-02T10:08:39.136Z,21.44
2017-02-02T10:09:39.073Z,21.36
2017-02-02T10:10:39.026Z,21.55
2017-02-02T10:11:38.560Z,21.44
2017-02-02T10:12:38.494Z,21.07
2017-02-02T10:13:38.823Z,21.17
2017-02-02T10:14:38.762Z,21.45
2017-02-02T10:15:38.313Z,21.45
2017-02-02T10:16:38.643Z,21.65
2017-02-02T10:17:38.576Z,21.55
2017-02-02T10:18:38.523Z,21.45
2017-02-02T10:19:38.455Z,21.84
2017-02-02T10:20:38.394Z,21.84
2017-02-02T10:21:38.376Z,21.94
2017-02-02T10:22:38.330Z,21.75
2017-02-02T10:23:38.202Z,21.75
2017-02-02T10:24:37.752Z,21.94
2017-02-02T10:25:37.944Z,21.75
2017-02-02T10:26:37.629Z,21.55
2017-02-02T10:27:37.954Z,21.94
2017-02-02T10:28:37.888Z,21.55
2017-02-02T10:29:37.836Z,22.42
2017-02-02T10:30:37.806Z,22.33
2017-02-02T10:31:37.707Z,20.49
2017-02-02T10:32:37.704Z,18.65
2017-02-02T10:33:37.198Z,15.74
2017-02-02T10:34:37.522Z,14.49
2017-02-02T10:35:37.323Z,14.09
2017-02-02T10:36:37.394Z,13.42
2017-02-02T10:37:37.336Z,13.13
2017-02-02T10:38:36.885Z,13.02
2017-02-02T10:39:37.213Z,13.02
2017-02-02T10:40:37.148Z,12.93
2017-02-02T10:41:37.090Z,13.12
2017-02-02T10:42:37.032Z,13.31
2017-02-02T10:43:36.961Z,13.98
2017-02-02T10:44:36.896Z,13.79
2017-02-02T10:45:37.083Z,13.79
2017-02-02T10:46:36.381Z,13.5
2017-02-02T10:47:36.712Z,13.6
2017-02-02T10:48:36.903Z,13.41
2017-02-02T10:49:36.651Z,13.6
2017-02-02T10:50:36.527Z,13.22
2017-02-02T10:51:36.468Z,13.22
2017-02-02T10:52:36.399Z,13.22
2017-02-02T10:53:36.482Z,13.12
2017-02-02T10:54:36.268Z,12.93
2017-02-02T10:55:36.205Z,13.12
2017-02-02T10:56:36.143Z,13.02
2017-02-02T10:57:35.694Z,13.7
2017-02-02T10:58:36.026Z,13.7
2017-02-02T10:59:35.570Z,13.8
2017-02-02T11:00:36.055Z,14.28
2017-02-02T11:01:35.826Z,14.56
2017-02-02T11:02:35.762Z,14.57
2017-02-02T11:03:35.702Z,14.57
2017-02-02T11:04:35.639Z,14.95
2017-02-02T11:05:35.573Z,14.76
2017-02-02T11:06:35.515Z,15.05
2017-02-02T11:07:35.075Z,15.73
2017-02-02T11:08:34.996Z,15.83
2017-02-02T11:09:35.321Z,15.73
2017-02-02T11:10:35.274Z,16.11
2017-02-02T11:11:34.807Z,16.11
2017-02-02T11:12:35.134Z,15.73
2017-02-02T11:13:35.069Z,16.61
2017-02-02T11:14:35.003Z,16.6
2017-02-02T11:15:34.947Z,16.89
2017-02-02T11:16:34.879Z,16.89
2017-02-02T11:17:34.815Z,17.19
2017-02-02T11:18:34.772Z,17.09
2017-02-02T11:19:34.691Z,18.15
2017-02-02T11:20:34.628Z,18.15
2017-02-02T11:21:34.580Z,18.15
2017-02-02T11:22:34.516Z,19.02
2017-02-02T11:23:34.062Z,19.12
2017-02-02T11:24:34.388Z,19.12
2017-02-02T11:25:34.616Z,18.82
2017-02-02T11:26:33.869Z,19.6
2017-02-02T11:27:34.189Z,19.79
2017-02-02T11:28:34.126Z,19.7
2017-02-02T11:29:34.065Z,19.5
2017-02-02T11:30:33.613Z,20.19
2017-02-02T11:31:33.947Z,20.18
2017-02-02T11:32:33.876Z,19.02
2017-02-02T11:33:33.815Z,18.84
2017-02-02T11:34:33.750Z,18.64
2017-02-02T11:35:33.301Z,18.84
2017-02-02T11:36:33.933Z,18.93
2017-02-02T11:37:33.569Z,19.03
2017-02-02T11:38:33.502Z,18.74
2017-02-02T11:39:33.438Z,19.42
2017-02-02T11:40:32.989Z,19.22
2017-02-02T11:41:33.333Z,18.84
2017-02-02T11:42:33.247Z,18.84
2017-02-02T11:43:33.200Z,18.84
2017-02-02T11:44:33.128Z,19.42
2017-02-02T11:45:33.072Z,19.32
2017-02-02T11:46:32.615Z,19.32
2017-02-02T11:47:32.948Z,19.42
2017-02-02T11:48:32.487Z,19.51
2017-02-02T11:49:32.816Z,19.8
2017-02-02T11:50:32.750Z,20.19
2017-02-02T11:51:32.691Z,20.28
2017-02-02T11:52:32.627Z,19.7
2017-02-02T11:53:32.564Z,20.09
2017-02-02T11:54:32.114Z,20.38
2017-02-02T11:55:32.055Z,20.77
2017-02-02T11:56:31.995Z,20.28
2017-02-02T11:57:31.930Z,20.28
2017-02-02T11:58:32.256Z,20.96
2017-02-02T11:59:32.201Z,20.38
2017-02-02T12:00:32.132Z,21.35
2017-02-02T12:01:31.880Z,21.73
2017-02-02T12:02:31.614Z,22.31
2017-02-02T12:03:31.943Z,21.54
2017-02-02T12:04:31.885Z,21.73
2017-02-02T12:05:31.827Z,21.75
2017-02-02T12:06:31.378Z,21.54
2017-02-02T12:07:31.975Z,23.49
2017-02-02T12:08:31.630Z,21.55
2017-02-02T12:09:31.574Z,22.61
2017-02-02T12:10:31.420Z,21.75
2017-02-02T12:11:31.059Z,22.52
2017-02-02T12:12:31.013Z,23.87
2017-02-02T12:13:30.945Z,23.1
2017-02-02T12:14:31.260Z,24.55
2017-02-02T12:15:31.597Z,23.58
2017-02-02T12:16:30.745Z,24.16
2017-02-02T12:17:31.089Z,22.23
2017-02-02T12:18:30.623Z,19.13
2017-02-02T12:19:30.949Z,17.58
2017-02-02T12:20:30.497Z,16.8
2017-02-02T12:21:30.826Z,15.83
2017-02-02T12:22:30.767Z,16.11
2017-02-02T12:23:30.311Z,16.41
2017-02-02T12:24:30.384Z,16.99
2017-02-02T12:25:30.889Z,16.89
2017-02-02T12:26:30.512Z,17.19
2017-02-02T12:27:30.067Z,17.86
2017-02-02T12:28:30.397Z,19.03
2017-02-02T12:29:29.937Z,19.03
2017-02-02T12:30:30.916Z,19.42
2017-02-02T12:31:29.817Z,20.28
2017-02-02T12:32:30.138Z,20.38
2017-02-02T12:33:30.127Z,21.06
2017-02-02T12:34:30.015Z,20.67
2017-02-02T12:35:30.259Z,20.67
2017-02-02T12:36:29.890Z,20.48
2017-02-02T12:37:29.438Z,20.48
2017-02-02T12:38:29.765Z,21.06
2017-02-02T12:39:29.315Z,21.55
2017-02-02T12:40:29.648Z,21.44
2017-02-02T12:41:29.190Z,21.75
2017-02-02T12:42:29.131Z,22.23
2017-02-02T12:43:29.458Z,22.33
2017-02-02T12:44:29.398Z,22.71
2017-02-02T12:45:29.631Z,22.61
2017-02-02T12:46:29.272Z,22.81
2017-02-02T12:47:28.823Z,23.19
2017-02-02T12:48:29.162Z,23
2017-02-02T12:49:29.088Z,23.49
2017-02-02T12:50:28.635Z,22.91
2017-02-02T12:51:28.571Z,23.29
2017-02-02T12:52:28.900Z,23.68
2017-02-02T12:53:28.846Z,23.49
2017-02-02T12:54:28.788Z,23.39
2017-02-02T12:55:28.716Z,22.61
2017-02-02T12:56:28.263Z,19.13
2017-02-02T12:57:28.200Z,17.19
2017-02-02T12:58:28.535Z,17
2017-02-02T12:59:28.074Z,16.99
2017-02-02T13:00:28.406Z,16.99
2017-02-02T13:01:28.345Z,17.1
2017-02-02T13:02:28.301Z,19.22
2017-02-02T13:03:28.217Z,20.38
2017-02-02T13:04:28.158Z,21.06
2017-02-02T13:05:28.097Z,21.84
2017-02-02T13:06:28.279Z,21.36
2017-02-02T13:07:27.967Z,22.52
2017-02-02T13:08:27.907Z,22.52
2017-02-02T13:09:27.842Z,22.42
2017-02-02T13:10:27.389Z,21.55
2017-02-02T13:11:27.719Z,22.61
2017-02-02T13:12:27.267Z,22.91
2017-02-02T13:13:27.599Z,22.42
2017-02-02T13:14:27.530Z,22.52
2017-02-02T13:15:27.088Z,22.52
2017-02-02T13:16:27.407Z,23
2017-02-02T13:17:27.348Z,23.19
2017-02-02T13:18:27.293Z,23.49
2017-02-02T13:19:27.224Z,20.1
2017-02-02T13:20:26.772Z,18.75
2017-02-02T13:21:26.710Z,18.64
2017-02-02T13:22:27.048Z,19.12
2017-02-02T13:23:26.974Z,19.42
2017-02-02T13:24:26.526Z,20.29
2017-02-02T13:25:26.869Z,21.07
2017-02-02T13:26:26.403Z,21.36
2017-02-02T13:27:26.727Z,21.45
2017-02-02T13:28:26.667Z,21.75
2017-02-02T13:29:26.609Z,21.94
2017-02-02T13:30:26.544Z,21.84
2017-02-02T13:31:26.093Z,21.45
2017-02-02T13:32:26.421Z,22.33
2017-02-02T13:33:26.359Z,22.42
2017-02-02T13:34:25.909Z,22.61
2017-02-02T13:35:26.478Z,22.71
2017-02-02T13:36:26.195Z,22.91
2017-02-02T13:37:26.114Z,23.1
2017-02-02T13:38:26.049Z,23.29
2017-02-02T13:39:25.981Z,23.29
2017-02-02T13:40:26.392Z,23.19
2017-02-02T13:41:25.860Z,23.4
2017-02-02T13:42:25.800Z,23.97
2017-02-02T13:43:25.415Z,23.87
2017-02-02T13:44:25.676Z,23.98
2017-02-02T13:45:25.249Z,23.77
2017-02-02T13:46:25.552Z,24.27
2017-02-02T13:47:25.099Z,24.17
2017-02-02T13:48:25.428Z,24.37
2017-02-02T13:49:25.370Z,24.56
2017-02-02T13:50:25.557Z,24.95
2017-02-02T13:51:25.244Z,24.85
